sensor_id;sensor_type;location;lat;lon;timestamp;P1;durP1;ratioP1;P2;durP2;ratioP2
3777;SDS011;1904;50.076;8.660;2023-05-10T00:02:22;1.17;;;1.07;;
3777;SDS011;1904;50.076;8.660;2023-05-10T00:07:52;1.90;;;1.07;;
3777;SDS011;1904;50.076;8.660;2023-05-10T00:12:59;4.30;;;1.10;;
3777;SDS011;1904;50.076;8.660;2023-05-10T00:15:34;1.20;;;1.10;;
3777;SDS011;1904;50.076;8.660;2023-05-10T00:21:10;0.90;;;0.90;;
3777;SDS011;1904;50.076;8.660;2023-05-10T00:23:46;4.47;;;1.33;;
3777;SDS011;1904;50.076;8.660;2023-05-10T00:26:22;0.80;;;0.80;;
3777;SDS011;1904;50.076;8.660;2023-05-10T00:28:47;2.77;;;0.73;;
3777;SDS011;1904;50.076;8.660;2023-05-10T00:31:22;2.53;;;0.80;;
3777;SDS011;1904;50.076;8.660;2023-05-10T00:33:58;1.97;;;0.97;;
3777;SDS011;1904;50.076;8.660;2023-05-10T00:36:28;3.03;;;0.80;;
3777;SDS011;1904;50.076;8.660;2023-05-10T00:41:46;0.63;;;0.63;;
3777;SDS011;1904;50.076;8.660;2023-05-10T00:44:22;2.93;;;0.70;;
3777;SDS011;1904;50.076;8.660;2023-05-10T00:46:48;1.43;;;0.50;;
3777;SDS011;1904;50.076;8.660;2023-05-10T00:49:16;1.23;;;0.70;;
3777;SDS011;1904;50.076;8.660;2023-05-10T00:51:52;3.97;;;0.90;;
3777;SDS011;1904;50.076;8.660;2023-05-10T00:54:22;3.70;;;0.50;;
3777;SDS011;1904;50.076;8.660;2023-05-10T00:59:38;3.80;;;1.00;;
3777;SDS011;1904;50.076;8.660;2023-05-10T01:02:04;3.37;;;0.60;;
3777;SDS011;1904;50.076;8.660;2023-05-10T01:04:34;0.60;;;0.60;;
3777;SDS011;1904;50.076;8.660;2023-05-10T01:10:34;1.47;;;0.90;;
3777;SDS011;1904;50.076;8.660;2023-05-10T01:13:04;10.03;;;0.63;;
3777;SDS011;1904;50.076;8.660;2023-05-10T01:15:30;0.57;;;0.57;;
3777;SDS011;1904;50.076;8.660;2023-05-10T01:36:05;1.37;;;0.67;;
3777;SDS011;1904;50.076;8.660;2023-05-10T01:48:05;0.63;;;0.60;;
3777;SDS011;1904;50.076;8.660;2023-05-10T01:50:34;0.70;;;0.70;;
3777;SDS011;1904;50.076;8.660;2023-05-10T01:53:17;0.83;;;0.70;;
3777;SDS011;1904;50.076;8.660;2023-05-10T01:55:52;0.77;;;0.70;;
3777;SDS011;1904;50.076;8.660;2023-05-10T01:58:21;0.70;;;0.70;;
3777;SDS011;1904;50.076;8.660;2023-05-10T02:01:04;0.90;;;0.70;;
3777;SDS011;1904;50.076;8.660;2023-05-10T02:03:34;0.70;;;0.70;;
3777;SDS011;1904;50.076;8.660;2023-05-10T02:06:04;10.87;;;0.80;;
3777;SDS011;1904;50.076;8.660;2023-05-10T02:08:40;2.30;;;0.70;;
3777;SDS011;1904;50.076;8.660;2023-05-10T02:11:22;1.03;;;0.80;;
3777;SDS011;1904;50.076;8.660;2023-05-10T02:13:52;1.17;;;0.90;;
3777;SDS011;1904;50.076;8.660;2023-05-10T02:16:20;2.77;;;0.70;;
3777;SDS011;1904;50.076;8.660;2023-05-10T02:21:37;8.90;;;0.90;;
3777;SDS011;1904;50.076;8.660;2023-05-10T02:27:04;0.70;;;0.70;;
3777;SDS011;1904;50.076;8.660;2023-05-10T02:29:40;1.07;;;0.70;;
3777;SDS011;1904;50.076;8.660;2023-05-10T02:32:22;0.70;;;0.70;;
3777;SDS011;1904;50.076;8.660;2023-05-10T02:34:58;2.93;;;0.90;;
3777;SDS011;1904;50.076;8.660;2023-05-10T02:37:28;7.60;;;1.37;;
3777;SDS011;1904;50.076;8.660;2023-05-10T02:39:54;3.10;;;0.90;;
3777;SDS011;1904;50.076;8.660;2023-05-10T02:42:25;3.50;;;0.70;;
3777;SDS011;1904;50.076;8.660;2023-05-10T02:44:53;4.33;;;0.73;;
3777;SDS011;1904;50.076;8.660;2023-05-10T02:47:28;4.80;;;0.90;;
3777;SDS011;1904;50.076;8.660;2023-05-10T02:50:04;3.90;;;0.70;;
3777;SDS011;1904;50.076;8.660;2023-05-10T02:52:41;1.37;;;0.90;;
3777;SDS011;1904;50.076;8.660;2023-05-10T02:57:59;3.07;;;0.70;;
3777;SDS011;1904;50.076;8.660;2023-05-10T03:00:28;3.30;;;0.90;;
3777;SDS011;1904;50.076;8.660;2023-05-10T03:05:46;1.80;;;0.60;;
3777;SDS011;1904;50.076;8.660;2023-05-10T03:08:22;1.57;;;1.00;;
3777;SDS011;1904;50.076;8.660;2023-05-10T03:11:31;1.70;;;0.90;;
3777;SDS011;1904;50.076;8.660;2023-05-10T03:14:03;5.37;;;0.77;;
3777;SDS011;1904;50.076;8.660;2023-05-10T03:17:21;11.27;;;1.57;;
3777;SDS011;1904;50.076;8.660;2023-05-10T03:25:10;0.80;;;0.73;;
3777;SDS011;1904;50.076;8.660;2023-05-10T03:27:39;4.33;;;0.93;;
3777;SDS011;1904;50.076;8.660;2023-05-10T03:30:16;1.53;;;0.90;;
3777;SDS011;1904;50.076;8.660;2023-05-10T03:32:42;2.10;;;0.77;;
3777;SDS011;1904;50.076;8.660;2023-05-10T03:35:22;1.23;;;0.80;;
3777;SDS011;1904;50.076;8.660;2023-05-10T03:40:40;4.00;;;1.13;;
3777;SDS011;1904;50.076;8.660;2023-05-10T03:43:22;2.93;;;1.30;;
3777;SDS011;1904;50.076;8.660;2023-05-10T03:45:52;2.70;;;0.97;;
3777;SDS011;1904;50.076;8.660;2023-05-10T03:48:34;1.20;;;0.90;;
3777;SDS011;1904;50.076;8.660;2023-05-10T03:54:16;1.60;;;1.00;;
3777;SDS011;1904;50.076;8.660;2023-05-10T03:56:52;1.07;;;0.93;;
3777;SDS011;1904;50.076;8.660;2023-05-10T03:59:17;2.60;;;1.00;;
3777;SDS011;1904;50.076;8.660;2023-05-10T04:07:46;1.03;;;0.90;;
3777;SDS011;1904;50.076;8.660;2023-05-10T04:10:14;7.43;;;1.30;;
3777;SDS011;1904;50.076;8.660;2023-05-10T04:12:58;6.73;;;1.80;;
3777;SDS011;1904;50.076;8.660;2023-05-10T04:15:34;2.20;;;1.57;;
3777;SDS011;1904;50.076;8.660;2023-05-10T04:21:23;3.60;;;1.23;;
3777;SDS011;1904;50.076;8.660;2023-05-10T04:23:52;6.83;;;1.40;;
3777;SDS011;1904;50.076;8.660;2023-05-10T04:26:34;6.73;;;1.20;;
3777;SDS011;1904;50.076;8.660;2023-05-10T04:29:04;1.10;;;1.10;;
3777;SDS011;1904;50.076;8.660;2023-05-10T04:31:40;1.90;;;1.20;;
3777;SDS011;1904;50.076;8.660;2023-05-10T04:34:16;5.90;;;1.37;;
3777;SDS011;1904;50.076;8.660;2023-05-10T04:36:46;1.43;;;1.23;;
3777;SDS011;1904;50.076;8.660;2023-05-10T04:39:22;1.03;;;1.00;;
3777;SDS011;1904;50.076;8.660;2023-05-10T04:42:04;1.30;;;1.20;;
3777;SDS011;1904;50.076;8.660;2023-05-10T04:47:34;4.33;;;1.50;;
3777;SDS011;1904;50.076;8.660;2023-05-10T04:53:11;2.80;;;1.53;;
3777;SDS011;1904;50.076;8.660;2023-05-10T04:55:46;3.43;;;1.20;;
3777;SDS011;1904;50.076;8.660;2023-05-10T04:58:16;4.00;;;1.10;;
3777;SDS011;1904;50.076;8.660;2023-05-10T05:00:46;2.20;;;1.10;;
3777;SDS011;1904;50.076;8.660;2023-05-10T05:03:16;2.50;;;1.13;;
3777;SDS011;1904;50.076;8.660;2023-05-10T05:05:52;1.23;;;1.00;;
3777;SDS011;1904;50.076;8.660;2023-05-10T05:08:22;1.60;;;1.50;;
3777;SDS011;1904;50.076;8.660;2023-05-10T05:13:59;3.03;;;1.47;;
3777;SDS011;1904;50.076;8.660;2023-05-10T05:16:30;3.17;;;1.30;;
3777;SDS011;1904;50.076;8.660;2023-05-10T05:22:06;3.03;;;1.50;;
3777;SDS011;1904;50.076;8.660;2023-05-10T05:24:40;3.47;;;1.30;;
3777;SDS011;1904;50.076;8.660;2023-05-10T05:27:16;1.50;;;1.40;;
3777;SDS011;1904;50.076;8.660;2023-05-10T05:32:34;3.00;;;1.63;;
3777;SDS011;1904;50.076;8.660;2023-05-10T05:37:47;1.77;;;1.67;;
3777;SDS011;1904;50.076;8.660;2023-05-10T05:40:16;4.30;;;1.70;;
3777;SDS011;1904;50.076;8.660;2023-05-10T05:42:58;2.57;;;1.83;;
3777;SDS011;1904;50.076;8.660;2023-05-10T05:45:40;3.10;;;1.90;;
3777;SDS011;1904;50.076;8.660;2023-05-10T05:48:10;2.63;;;1.87;;
3777;SDS011;1904;50.076;8.660;2023-05-10T05:50:46;5.73;;;1.77;;
3777;SDS011;1904;50.076;8.660;2023-05-10T05:53:16;4.90;;;1.73;;
3777;SDS011;1904;50.076;8.660;2023-05-10T05:55:52;1.47;;;1.47;;
3777;SDS011;1904;50.076;8.660;2023-05-10T05:58:22;3.63;;;2.07;;
3777;SDS011;1904;50.076;8.660;2023-05-10T06:00:52;4.60;;;1.87;;
3777;SDS011;1904;50.076;8.660;2023-05-10T06:03:28;3.93;;;2.50;;
3777;SDS011;1904;50.076;8.660;2023-05-10T06:06:04;12.13;;;1.80;;
3777;SDS011;1904;50.076;8.660;2023-05-10T06:08:34;2.90;;;1.73;;
3777;SDS011;1904;50.076;8.660;2023-05-10T06:11:00;4.20;;;2.00;;
3777;SDS011;1904;50.076;8.660;2023-05-10T06:16:22;6.87;;;2.07;;
3777;SDS011;1904;50.076;8.660;2023-05-10T06:18:58;1.90;;;1.80;;
3777;SDS011;1904;50.076;8.660;2023-05-10T06:24:17;2.33;;;2.07;;
3777;SDS011;1904;50.076;8.660;2023-05-10T06:26:52;2.80;;;1.80;;
3777;SDS011;1904;50.076;8.660;2023-05-10T06:29:34;3.53;;;2.17;;
3777;SDS011;1904;50.076;8.660;2023-05-10T06:38:04;2.43;;;1.80;;
3777;SDS011;1904;50.076;8.660;2023-05-10T06:40:34;4.30;;;1.87;;
3777;SDS011;1904;50.076;8.660;2023-05-10T06:43:04;11.03;;;2.30;;
3777;SDS011;1904;50.076;8.660;2023-05-10T06:45:34;2.10;;;2.00;;
3777;SDS011;1904;50.076;8.660;2023-05-10T06:48:04;3.80;;;1.70;;
3777;SDS011;1904;50.076;8.660;2023-05-10T06:50:34;2.70;;;2.07;;
3777;SDS011;1904;50.076;8.660;2023-05-10T06:53:04;4.47;;;1.90;;
3777;SDS011;1904;50.076;8.660;2023-05-10T06:55:34;6.00;;;2.47;;
3777;SDS011;1904;50.076;8.660;2023-05-10T06:58:04;4.50;;;2.33;;
3777;SDS011;1904;50.076;8.660;2023-05-10T07:03:22;4.73;;;2.33;;
3777;SDS011;1904;50.076;8.660;2023-05-10T07:05:52;8.00;;;2.10;;
3777;SDS011;1904;50.076;8.660;2023-05-10T07:08:22;9.20;;;2.63;;
3777;SDS011;1904;50.076;8.660;2023-05-10T07:10:52;4.63;;;2.20;;
3777;SDS011;1904;50.076;8.660;2023-05-10T07:13:22;3.90;;;2.40;;
3777;SDS011;1904;50.076;8.660;2023-05-10T07:15:52;12.10;;;2.57;;
3777;SDS011;1904;50.076;8.660;2023-05-10T07:18:22;4.27;;;2.10;;
3777;SDS011;1904;50.076;8.660;2023-05-10T07:24:04;6.10;;;1.80;;
3777;SDS011;1904;50.076;8.660;2023-05-10T07:26:34;3.73;;;2.03;;
3777;SDS011;1904;50.076;8.660;2023-05-10T07:29:04;4.40;;;1.97;;
3777;SDS011;1904;50.076;8.660;2023-05-10T07:31:34;3.50;;;1.53;;
3777;SDS011;1904;50.076;8.660;2023-05-10T07:40:04;4.73;;;2.13;;
3777;SDS011;1904;50.076;8.660;2023-05-10T07:42:30;7.90;;;2.33;;
3777;SDS011;1904;50.076;8.660;2023-05-10T07:45:04;7.90;;;1.70;;
3777;SDS011;1904;50.076;8.660;2023-05-10T07:47:34;3.27;;;2.27;;
3777;SDS011;1904;50.076;8.660;2023-05-10T07:50:16;3.70;;;2.00;;
3777;SDS011;1904;50.076;8.660;2023-05-10T07:52:46;8.37;;;2.50;;
3777;SDS011;1904;50.076;8.660;2023-05-10T07:58:04;4.23;;;2.33;;
3777;SDS011;1904;50.076;8.660;2023-05-10T08:00:34;1.97;;;1.67;;
3777;SDS011;1904;50.076;8.660;2023-05-10T08:03:16;4.63;;;1.60;;
3777;SDS011;1904;50.076;8.660;2023-05-10T08:05:52;2.40;;;1.67;;
3777;SDS011;1904;50.076;8.660;2023-05-10T08:08:22;6.47;;;2.23;;
3777;SDS011;1904;50.076;8.660;2023-05-10T08:14:04;6.27;;;1.73;;
3777;SDS011;1904;50.076;8.660;2023-05-10T08:16:34;5.60;;;2.23;;
3777;SDS011;1904;50.076;8.660;2023-05-10T08:19:04;6.43;;;1.63;;
3777;SDS011;1904;50.076;8.660;2023-05-10T08:21:34;5.63;;;2.03;;
3777;SDS011;1904;50.076;8.660;2023-05-10T08:27:28;2.40;;;1.73;;
3777;SDS011;1904;50.076;8.660;2023-05-10T08:30:04;3.40;;;2.03;;
3777;SDS011;1904;50.076;8.660;2023-05-10T08:32:34;6.43;;;1.67;;
3777;SDS011;1904;50.076;8.660;2023-05-10T08:35:04;7.87;;;2.50;;
3777;SDS011;1904;50.076;8.660;2023-05-10T08:37:40;16.53;;;2.23;;
3777;SDS011;1904;50.076;8.660;2023-05-10T08:40:16;3.30;;;1.50;;
3777;SDS011;1904;50.076;8.660;2023-05-10T08:42:59;3.70;;;1.83;;
3777;SDS011;1904;50.076;8.660;2023-05-10T08:45:38;5.73;;;1.77;;
3777;SDS011;1904;50.076;8.660;2023-05-10T08:51:04;4.23;;;1.77;;
3777;SDS011;1904;50.076;8.660;2023-05-10T08:59:29;8.37;;;2.77;;
3777;SDS011;1904;50.076;8.660;2023-05-10T09:01:58;4.57;;;2.10;;
3777;SDS011;1904;50.076;8.660;2023-05-10T09:04:34;12.20;;;1.70;;
3777;SDS011;1904;50.076;8.660;2023-05-10T09:07:00;5.23;;;1.67;;
3777;SDS011;1904;50.076;8.660;2023-05-10T09:09:28;2.77;;;1.80;;
3777;SDS011;1904;50.076;8.660;2023-05-10T09:12:04;5.33;;;1.67;;
3777;SDS011;1904;50.076;8.660;2023-05-10T09:17:34;3.37;;;1.90;;
3777;SDS011;1904;50.076;8.660;2023-05-10T09:20:01;2.63;;;2.03;;
3777;SDS011;1904;50.076;8.660;2023-05-10T09:22:40;2.60;;;2.00;;
3777;SDS011;1904;50.076;8.660;2023-05-10T09:25:10;5.20;;;1.93;;
3777;SDS011;1904;50.076;8.660;2023-05-10T09:27:40;3.00;;;1.67;;
3777;SDS011;1904;50.076;8.660;2023-05-10T09:30:10;3.40;;;1.60;;
3777;SDS011;1904;50.076;8.660;2023-05-10T09:32:58;4.30;;;1.40;;
3777;SDS011;1904;50.076;8.660;2023-05-10T09:35:30;11.53;;;1.43;;
3777;SDS011;1904;50.076;8.660;2023-05-10T09:38:04;3.13;;;1.60;;
3777;SDS011;1904;50.076;8.660;2023-05-10T09:40:30;7.17;;;1.60;;
3777;SDS011;1904;50.076;8.660;2023-05-10T09:45:58;5.53;;;1.50;;
3777;SDS011;1904;50.076;8.660;2023-05-10T09:48:28;6.63;;;1.70;;
3777;SDS011;1904;50.076;8.660;2023-05-10T09:50:57;7.07;;;1.93;;
3777;SDS011;1904;50.076;8.660;2023-05-10T09:53:28;3.67;;;1.30;;
3777;SDS011;1904;50.076;8.660;2023-05-10T09:55:58;4.20;;;1.67;;
3777;SDS011;1904;50.076;8.660;2023-05-10T09:58:36;2.60;;;1.70;;
3777;SDS011;1904;50.076;8.660;2023-05-10T10:01:03;28.30;;;3.80;;
3777;SDS011;1904;50.076;8.660;2023-05-10T10:03:29;17.53;;;3.20;;
3777;SDS011;1904;50.076;8.660;2023-05-10T10:06:04;6.13;;;2.60;;
3777;SDS011;1904;50.076;8.660;2023-05-10T10:08:34;4.27;;;2.50;;
3777;SDS011;1904;50.076;8.660;2023-05-10T10:11:04;7.60;;;2.13;;
3777;SDS011;1904;50.076;8.660;2023-05-10T10:13:34;8.70;;;2.30;;
3777;SDS011;1904;50.076;8.660;2023-05-10T10:16:16;2.53;;;1.93;;
3777;SDS011;1904;50.076;8.660;2023-05-10T10:18:58;4.30;;;1.67;;
3777;SDS011;1904;50.076;8.660;2023-05-10T10:21:24;6.97;;;1.97;;
3777;SDS011;1904;50.076;8.660;2023-05-10T10:23:52;2.40;;;1.90;;
3777;SDS011;1904;50.076;8.660;2023-05-10T10:26:18;6.30;;;2.40;;
3777;SDS011;1904;50.076;8.660;2023-05-10T10:41:35;2.90;;;0.90;;
3777;SDS011;1904;50.076;8.660;2023-05-10T10:44:23;1.53;;;0.87;;
3777;SDS011;1904;50.076;8.660;2023-05-10T10:50:05;3.10;;;1.13;;
3777;SDS011;1904;50.076;8.660;2023-05-10T10:52:40;0.97;;;0.90;;
3777;SDS011;1904;50.076;8.660;2023-05-10T10:55:07;1.47;;;0.90;;
3777;SDS011;1904;50.076;8.660;2023-05-10T11:05:57;0.70;;;0.70;;
3777;SDS011;1904;50.076;8.660;2023-05-10T11:13:53;3.47;;;1.00;;
3777;SDS011;1904;50.076;8.660;2023-05-10T11:17:01;3.53;;;0.80;;
3777;SDS011;1904;50.076;8.660;2023-05-10T11:19:28;0.90;;;0.60;;
3777;SDS011;1904;50.076;8.660;2023-05-10T11:24:34;7.93;;;0.73;;
3777;SDS011;1904;50.076;8.660;2023-05-10T11:27:05;0.70;;;0.70;;
3777;SDS011;1904;50.076;8.660;2023-05-10T11:29:34;3.73;;;0.80;;
3777;SDS011;1904;50.076;8.660;2023-05-10T11:32:00;1.43;;;0.80;;
3777;SDS011;1904;50.076;8.660;2023-05-10T11:34:29;2.43;;;0.97;;
3777;SDS011;1904;50.076;8.660;2023-05-10T11:36:56;2.60;;;1.20;;
3777;SDS011;1904;50.076;8.660;2023-05-10T11:39:34;11.97;;;1.00;;
3777;SDS011;1904;50.076;8.660;2023-05-10T11:42:04;5.90;;;1.07;;
3777;SDS011;1904;50.076;8.660;2023-05-10T11:44:34;1.33;;;1.10;;
3777;SDS011;1904;50.076;8.660;2023-05-10T11:47:04;3.53;;;0.90;;
3777;SDS011;1904;50.076;8.660;2023-05-10T11:49:34;2.40;;;1.00;;
3777;SDS011;1904;50.076;8.660;2023-05-10T11:52:04;2.07;;;1.47;;
3777;SDS011;1904;50.076;8.660;2023-05-10T11:54:34;4.00;;;1.00;;
3777;SDS011;1904;50.076;8.660;2023-05-10T11:57:00;7.70;;;1.30;;
3777;SDS011;1904;50.076;8.660;2023-05-10T11:59:28;1.53;;;1.20;;
3777;SDS011;1904;50.076;8.660;2023-05-10T12:01:54;3.43;;;1.20;;
3777;SDS011;1904;50.076;8.660;2023-05-10T12:04:20;4.73;;;1.30;;
3777;SDS011;1904;50.076;8.660;2023-05-10T12:10:08;5.20;;;1.50;;
3777;SDS011;1904;50.076;8.660;2023-05-10T12:12:39;4.60;;;1.27;;
3777;SDS011;1904;50.076;8.660;2023-05-10T12:15:18;1.10;;;1.00;;
3777;SDS011;1904;50.076;8.660;2023-05-10T12:17:52;2.70;;;1.30;;
3777;SDS011;1904;50.076;8.660;2023-05-10T12:25:31;4.00;;;1.00;;
3777;SDS011;1904;50.076;8.660;2023-05-10T12:28:05;3.33;;;0.83;;
3777;SDS011;1904;50.076;8.660;2023-05-10T12:30:34;0.90;;;0.90;;
3777;SDS011;1904;50.076;8.660;2023-05-10T12:33:07;13.83;;;1.30;;
3777;SDS011;1904;50.076;8.660;2023-05-10T12:41:05;1.97;;;0.87;;
3777;SDS011;1904;50.076;8.660;2023-05-10T12:43:34;1.17;;;0.70;;
3777;SDS011;1904;50.076;8.660;2023-05-10T12:46:05;0.97;;;0.70;;
3777;SDS011;1904;50.076;8.660;2023-05-10T12:51:31;0.60;;;0.60;;
3777;SDS011;1904;50.076;8.660;2023-05-10T12:53:58;0.60;;;0.60;;
3777;SDS011;1904;50.076;8.660;2023-05-10T12:56:28;0.70;;;0.70;;
3777;SDS011;1904;50.076;8.660;2023-05-10T12:58:54;1.47;;;0.60;;
3777;SDS011;1904;50.076;8.660;2023-05-10T13:01:19;1.00;;;0.70;;
3777;SDS011;1904;50.076;8.660;2023-05-10T13:03:45;2.00;;;0.70;;
3777;SDS011;1904;50.076;8.660;2023-05-10T13:06:22;1.67;;;0.70;;
3777;SDS011;1904;50.076;8.660;2023-05-10T13:11:46;2.27;;;0.70;;
3777;SDS011;1904;50.076;8.660;2023-05-10T13:17:28;2.50;;;0.80;;
3777;SDS011;1904;50.076;8.660;2023-05-10T13:22:58;1.43;;;0.70;;
3777;SDS011;1904;50.076;8.660;2023-05-10T13:31:12;1.17;;;0.77;;
3777;SDS011;1904;50.076;8.660;2023-05-10T13:33:46;6.80;;;0.70;;
3777;SDS011;1904;50.076;8.660;2023-05-10T13:39:34;0.60;;;0.60;;
3777;SDS011;1904;50.076;8.660;2023-05-10T13:42:04;3.53;;;0.70;;
3777;SDS011;1904;50.076;8.660;2023-05-10T13:44:34;1.73;;;0.80;;
3777;SDS011;1904;50.076;8.660;2023-05-10T13:47:04;2.03;;;0.80;;
3777;SDS011;1904;50.076;8.660;2023-05-10T13:49:30;0.63;;;0.63;;
3777;SDS011;1904;50.076;8.660;2023-05-10T13:52:04;3.83;;;0.93;;
3777;SDS011;1904;50.076;8.660;2023-05-10T14:01:41;4.37;;;0.70;;
3777;SDS011;1904;50.076;8.660;2023-05-10T14:04:07;1.20;;;1.00;;
3777;SDS011;1904;50.076;8.660;2023-05-10T14:09:52;1.53;;;0.60;;
3777;SDS011;1904;50.076;8.660;2023-05-10T14:15:40;3.10;;;0.87;;
3777;SDS011;1904;50.076;8.660;2023-05-10T14:24:21;1.63;;;0.90;;
3777;SDS011;1904;50.076;8.660;2023-05-10T14:30:09;5.80;;;0.80;;
3777;SDS011;1904;50.076;8.660;2023-05-10T14:39:04;7.83;;;0.80;;
3777;SDS011;1904;50.076;8.660;2023-05-10T14:58:12;3.83;;;0.80;;
3777;SDS011;1904;50.076;8.660;2023-05-10T15:00:37;5.60;;;0.80;;
3777;SDS011;1904;50.076;8.660;2023-05-10T15:06:35;1.60;;;1.00;;
3777;SDS011;1904;50.076;8.660;2023-05-10T15:12:16;1.63;;;0.80;;
3777;SDS011;1904;50.076;8.660;2023-05-10T15:18:04;0.70;;;0.70;;
3777;SDS011;1904;50.076;8.660;2023-05-10T15:20:40;1.63;;;0.90;;
3777;SDS011;1904;50.076;8.660;2023-05-10T15:36:40;6.50;;;1.20;;
3777;SDS011;1904;50.076;8.660;2023-05-10T15:45:21;1.27;;;0.70;;
3777;SDS011;1904;50.076;8.660;2023-05-10T15:54:31;2.77;;;1.00;;
3777;SDS011;1904;50.076;8.660;2023-05-10T16:03:39;3.17;;;0.63;;
3777;SDS011;1904;50.076;8.660;2023-05-10T16:06:05;1.70;;;0.90;;
3777;SDS011;1904;50.076;8.660;2023-05-10T16:11:43;7.50;;;0.90;;
3777;SDS011;1904;50.076;8.660;2023-05-10T16:29:39;2.30;;;0.93;;
3777;SDS011;1904;50.076;8.660;2023-05-10T16:32:10;2.30;;;1.00;;
3777;SDS011;1904;50.076;8.660;2023-05-10T16:34:46;9.37;;;0.97;;
3777;SDS011;1904;50.076;8.660;2023-05-10T16:37:14;3.03;;;0.90;;
3777;SDS011;1904;50.076;8.660;2023-05-10T16:39:46;9.30;;;0.80;;
3777;SDS011;1904;50.076;8.660;2023-05-10T16:54:28;2.10;;;0.90;;
3777;SDS011;1904;50.076;8.660;2023-05-10T17:00:22;3.30;;;1.20;;
3777;SDS011;1904;50.076;8.660;2023-05-10T17:02:58;5.40;;;1.10;;
3777;SDS011;1904;50.076;8.660;2023-05-10T17:05:24;3.90;;;1.17;;
3777;SDS011;1904;50.076;8.660;2023-05-10T17:08:04;1.43;;;1.00;;
3777;SDS011;1904;50.076;8.660;2023-05-10T17:10:35;7.20;;;0.90;;
3777;SDS011;1904;50.076;8.660;2023-05-10T17:16:10;3.67;;;0.90;;
3777;SDS011;1904;50.076;8.660;2023-05-10T17:18:46;1.70;;;0.80;;
3777;SDS011;1904;50.076;8.660;2023-05-10T17:23:58;2.90;;;1.00;;
3777;SDS011;1904;50.076;8.660;2023-05-10T17:29:12;1.30;;;0.83;;
3777;SDS011;1904;50.076;8.660;2023-05-10T17:31:52;7.53;;;1.00;;
3777;SDS011;1904;50.076;8.660;2023-05-10T17:37:07;2.43;;;1.03;;
3777;SDS011;1904;50.076;8.660;2023-05-10T17:39:34;0.90;;;0.70;;
3777;SDS011;1904;50.076;8.660;2023-05-10T17:42:10;2.60;;;1.00;;
3777;SDS011;1904;50.076;8.660;2023-05-10T17:44:40;1.47;;;0.80;;
3777;SDS011;1904;50.076;8.660;2023-05-10T17:47:10;0.80;;;0.80;;
3777;SDS011;1904;50.076;8.660;2023-05-10T17:49:37;6.53;;;1.00;;
3777;SDS011;1904;50.076;8.660;2023-05-10T17:52:03;10.53;;;1.00;;
3777;SDS011;1904;50.076;8.660;2023-05-10T17:54:34;4.50;;;1.10;;
3777;SDS011;1904;50.076;8.660;2023-05-10T18:03:10;5.13;;;1.10;;
3777;SDS011;1904;50.076;8.660;2023-05-10T18:12:16;1.03;;;0.93;;
3777;SDS011;1904;50.076;8.660;2023-05-10T18:14:47;1.63;;;0.93;;
3777;SDS011;1904;50.076;8.660;2023-05-10T18:20:34;3.43;;;0.90;;
3777;SDS011;1904;50.076;8.660;2023-05-10T18:32:59;6.07;;;2.10;;
3777;SDS011;1904;50.076;8.660;2023-05-10T18:38:46;4.00;;;1.47;;
3777;SDS011;1904;50.076;8.660;2023-05-10T18:44:33;1.47;;;1.33;;
3777;SDS011;1904;50.076;8.660;2023-05-10T18:53:28;7.00;;;1.20;;
3777;SDS011;1904;50.076;8.660;2023-05-10T18:59:17;1.17;;;1.07;;
3777;SDS011;1904;50.076;8.660;2023-05-10T19:20:34;8.27;;;1.47;;
3777;SDS011;1904;50.076;8.660;2023-05-10T19:29:43;14.13;;;1.67;;
3777;SDS011;1904;50.076;8.660;2023-05-10T19:35:29;12.23;;;2.57;;
3777;SDS011;1904;50.076;8.660;2023-05-10T19:47:29;1.63;;;1.53;;
3777;SDS011;1904;50.076;8.660;2023-05-10T19:59:52;4.30;;;2.00;;
3777;SDS011;1904;50.076;8.660;2023-05-10T20:05:39;8.70;;;1.73;;
3777;SDS011;1904;50.076;8.660;2023-05-10T20:14:22;6.63;;;2.07;;
3777;SDS011;1904;50.076;8.660;2023-05-10T20:20:10;6.20;;;1.70;;
3777;SDS011;1904;50.076;8.660;2023-05-10T20:32:10;18.23;;;4.10;;
3777;SDS011;1904;50.076;8.660;2023-05-10T20:34:36;17.63;;;2.40;;
3777;SDS011;1904;50.076;8.660;2023-05-10T20:37:02;7.83;;;2.60;;
3777;SDS011;1904;50.076;8.660;2023-05-10T20:39:28;9.27;;;2.33;;
3777;SDS011;1904;50.076;8.660;2023-05-10T20:42:05;7.77;;;2.40;;
3777;SDS011;1904;50.076;8.660;2023-05-10T20:44:30;7.50;;;2.30;;
3777;SDS011;1904;50.076;8.660;2023-05-10T20:50:17;5.20;;;1.70;;
3777;SDS011;1904;50.076;8.660;2023-05-10T21:08:39;3.67;;;2.30;;
3777;SDS011;1904;50.076;8.660;2023-05-10T21:17:30;11.70;;;2.30;;
3777;SDS011;1904;50.076;8.660;2023-05-10T21:20:10;5.50;;;2.40;;
3777;SDS011;1904;50.076;8.660;2023-05-10T21:22:37;5.37;;;3.20;;
3777;SDS011;1904;50.076;8.660;2023-05-10T21:25:02;4.67;;;3.27;;
3777;SDS011;1904;50.076;8.660;2023-05-10T21:27:28;11.10;;;2.43;;
3777;SDS011;1904;50.076;8.660;2023-05-10T21:30:05;7.67;;;2.30;;
3777;SDS011;1904;50.076;8.660;2023-05-10T21:32:31;5.63;;;2.40;;
3777;SDS011;1904;50.076;8.660;2023-05-10T21:34:57;4.73;;;2.20;;
3777;SDS011;1904;50.076;8.660;2023-05-10T21:37:22;17.97;;;2.47;;
3777;SDS011;1904;50.076;8.660;2023-05-10T21:39:48;5.07;;;2.10;;
3777;SDS011;1904;50.076;8.660;2023-05-10T21:42:14;2.93;;;2.07;;
3777;SDS011;1904;50.076;8.660;2023-05-10T21:44:41;3.57;;;2.30;;
3777;SDS011;1904;50.076;8.660;2023-05-10T21:47:06;11.83;;;2.40;;
3777;SDS011;1904;50.076;8.660;2023-05-10T21:49:35;2.33;;;2.23;;
3777;SDS011;1904;50.076;8.660;2023-05-10T21:52:00;6.80;;;2.57;;
3777;SDS011;1904;50.076;8.660;2023-05-10T21:54:35;6.33;;;2.70;;
3777;SDS011;1904;50.076;8.660;2023-05-10T21:57:05;4.23;;;2.30;;
3777;SDS011;1904;50.076;8.660;2023-05-10T21:59:30;6.97;;;2.63;;
3777;SDS011;1904;50.076;8.660;2023-05-10T22:11:44;8.43;;;2.57;;
3777;SDS011;1904;50.076;8.660;2023-05-10T22:14:09;6.90;;;2.70;;
3777;SDS011;1904;50.076;8.660;2023-05-10T22:26:41;2.30;;;1.90;;
3777;SDS011;1904;50.076;8.660;2023-05-10T22:32:29;2.63;;;2.43;;
3777;SDS011;1904;50.076;8.660;2023-05-10T22:34:59;11.90;;;2.60;;
3777;SDS011;1904;50.076;8.660;2023-05-10T22:37:24;6.33;;;2.60;;
3777;SDS011;1904;50.076;8.660;2023-05-10T22:40:05;6.57;;;2.40;;
3777;SDS011;1904;50.076;8.660;2023-05-10T22:42:41;6.37;;;2.50;;
3777;SDS011;1904;50.076;8.660;2023-05-10T22:45:11;3.97;;;2.47;;
3777;SDS011;1904;50.076;8.660;2023-05-10T22:56:52;7.90;;;2.50;;
3777;SDS011;1904;50.076;8.660;2023-05-10T22:59:35;5.60;;;2.20;;
3777;SDS011;1904;50.076;8.660;2023-05-10T23:15:13;9.30;;;2.50;;
3777;SDS011;1904;50.076;8.660;2023-05-10T23:17:39;2.40;;;2.30;;
3777;SDS011;1904;50.076;8.660;2023-05-10T23:20:17;4.70;;;2.13;;
3777;SDS011;1904;50.076;8.660;2023-05-10T23:22:42;2.70;;;2.40;;
3777;SDS011;1904;50.076;8.660;2023-05-10T23:25:08;4.30;;;2.50;;
3777;SDS011;1904;50.076;8.660;2023-05-10T23:27:35;5.67;;;2.37;;
3777;SDS011;1904;50.076;8.660;2023-05-10T23:30:05;7.37;;;2.63;;
3777;SDS011;1904;50.076;8.660;2023-05-10T23:44:52;12.33;;;3.20;;
